Estación Meteorológica Peña el Pijo (Robertgarden) [ 06/24/18 10:37:09 CEST ]

Fecha Hora Presion(HPa) Temp (°C) Humedad % Rocio (°C) Viento ( m/s) Direccion Lluvia 1Hora(mm) Lluvia 24H(mm) LLuvia Total(mm)
2018-Feb-03 01:01:44 1004.100 -2.6 77 -6.1       4.14 70.44
2018-Feb-03 02:01:43 1003.900 -1.7 77 -5.2       4.14 70.44
2018-Feb-03 03:01:38 1004.100 -1.4 74 -5.5       4.14 70.44
2018-Feb-03 04:01:45 1004.500 -2.4 75 -6.2       4.14 70.44
2018-Feb-03 05:05:13 1004.900 -1.9 77 -5.4       4.14 70.44
2018-Feb-03 06:01:24 1005.300 -1.9 77 -5.4       4.14 70.44
2018-Feb-03 07:01:44 1005.300 -1.6 76 -5.3       4.14 70.44
2018-Feb-03 08:01:43 1005.800 -2.5 76 -6.2       4.14 70.44
2018-Feb-03 09:01:39 1006.000 -2.7 78 -6.0       4.14 70.44
2018-Feb-03 10:01:54 1006.700 1.5 74 -2.7       4.14 70.44
2018-Feb-03 11:01:32 1007.100 3.5 63 -2.9       4.14 70.44
2018-Feb-03 12:01:38 1007.200 4.9 59 -2.4 2.8 NW 0.51 4.66 70.96
2018-Feb-03 13:01:33 1006.200 5.1 57 -2.8       4.66 70.96
2018-Feb-03 14:01:42 1005.000 6.2 54 -2.5       3.62 70.96
2018-Feb-03 15:01:40 1004.900 7.3 50 -2.4       1.55 70.96
2018-Feb-03 16:01:42 1004.200 6.6 47 -4.0 2.7 NNE   0.51 70.96
2018-Feb-03 17:01:57 1004.100 5.9 49 -4.0       0.51 70.96
2018-Feb-03 18:01:44 1004.100 3.8 55 -4.5       0.51 70.96
2018-Feb-03 19:01:53 1004.300 2.1 60 -4.8       0.51 70.96
2018-Feb-03 20:01:52 1004.400 2.0 61 -4.7       0.51 70.96
2018-Feb-03 21:01:52 1004.200 1.3 62 -5.2       0.51 70.96
2018-Feb-03 22:01:58 1003.700 2.2 60 -4.7       0.51 70.96
2018-Feb-03 23:01:40 1003.500 1.9 62 -4.6       0.51 70.96

Temperatura Máxima:    Temperatura Mínima:-2°
Presión Máxima:1007.200 Hpa    Presión Mínima:1003.500 Hpa


Volver